sensor_id;sensor_type;location;lat;lon;timestamp;temperature;humidity
20057;DHT22;10189;49.546;7.906;2022-12-07T00:01:34;1.30;99.90
20057;DHT22;10189;49.546;7.906;2022-12-07T00:04:03;1.30;99.90
20057;DHT22;10189;49.546;7.906;2022-12-07T00:06:51;1.20;99.90
20057;DHT22;10189;49.546;7.906;2022-12-07T00:09:18;1.30;99.90
20057;DHT22;10189;49.546;7.906;2022-12-07T00:11:48;1.30;99.90
20057;DHT22;10189;49.546;7.906;2022-12-07T00:14:16;1.40;99.90
20057;DHT22;10189;49.546;7.906;2022-12-07T00:16:43;1.40;99.50
20057;DHT22;10189;49.546;7.906;2022-12-07T00:19:11;1.30;99.00
20057;DHT22;10189;49.546;7.906;2022-12-07T00:21:38;1.30;99.20
20057;DHT22;10189;49.546;7.906;2022-12-07T00:24:05;1.30;99.40
20057;DHT22;10189;49.546;7.906;2022-12-07T00:26:34;1.30;99.60
20057;DHT22;10189;49.546;7.906;2022-12-07T00:29:08;1.20;99.60
20057;DHT22;10189;49.546;7.906;2022-12-07T00:31:38;1.20;99.40
20057;DHT22;10189;49.546;7.906;2022-12-07T00:34:05;1.20;99.70
20057;DHT22;10189;49.546;7.906;2022-12-07T00:36:32;1.20;99.90
20057;DHT22;10189;49.546;7.906;2022-12-07T00:38:59;1.20;99.90
20057;DHT22;10189;49.546;7.906;2022-12-07T00:41:29;1.30;99.90
20057;DHT22;10189;49.546;7.906;2022-12-07T00:43:56;1.20;99.90
20057;DHT22;10189;49.546;7.906;2022-12-07T00:46:23;1.30;99.90
20057;DHT22;10189;49.546;7.906;2022-12-07T00:48:50;1.30;99.90
20057;DHT22;10189;49.546;7.906;2022-12-07T00:51:19;1.30;99.80
20057;DHT22;10189;49.546;7.906;2022-12-07T00:53:46;1.20;99.90
20057;DHT22;10189;49.546;7.906;2022-12-07T00:56:19;1.20;99.90
20057;DHT22;10189;49.546;7.906;2022-12-07T00:58:57;1.20;99.90
20057;DHT22;10189;49.546;7.906;2022-12-07T01:01:26;1.20;99.90
20057;DHT22;10189;49.546;7.906;2022-12-07T01:03:54;1.20;99.90
20057;DHT22;10189;49.546;7.906;2022-12-07T01:06:21;1.10;99.90
20057;DHT22;10189;49.546;7.906;2022-12-07T01:08:49;1.20;99.90
20057;DHT22;10189;49.546;7.906;2022-12-07T01:11:18;1.10;99.90
20057;DHT22;10189;49.546;7.906;2022-12-07T01:13:45;1.10;99.90
20057;DHT22;10189;49.546;7.906;2022-12-07T01:16:14;1.00;99.90
20057;DHT22;10189;49.546;7.906;2022-12-07T01:18:42;0.90;99.90
20057;DHT22;10189;49.546;7.906;2022-12-07T01:21:14;0.80;99.90
20057;DHT22;10189;49.546;7.906;2022-12-07T01:23:46;0.80;99.90
20057;DHT22;10189;49.546;7.906;2022-12-07T01:26:15;0.70;99.90
20057;DHT22;10189;49.546;7.906;2022-12-07T01:28:43;0.70;99.90
20057;DHT22;10189;49.546;7.906;2022-12-07T01:31:12;0.70;99.90
20057;DHT22;10189;49.546;7.906;2022-12-07T01:33:41;0.70;99.90
20057;DHT22;10189;49.546;7.906;2022-12-07T01:38:40;0.80;99.90
20057;DHT22;10189;49.546;7.906;2022-12-07T01:41:06;0.70;99.90
20057;DHT22;10189;49.546;7.906;2022-12-07T01:43:34;0.70;99.90
20057;DHT22;10189;49.546;7.906;2022-12-07T01:46:02;0.80;99.90
20057;DHT22;10189;49.546;7.906;2022-12-07T01:51:03;0.80;99.90
20057;DHT22;10189;49.546;7.906;2022-12-07T01:53:37;0.80;99.90
20057;DHT22;10189;49.546;7.906;2022-12-07T01:56:08;0.80;99.90
20057;DHT22;10189;49.546;7.906;2022-12-07T01:58:37;0.90;99.90
20057;DHT22;10189;49.546;7.906;2022-12-07T02:01:03;0.90;99.90
20057;DHT22;10189;49.546;7.906;2022-12-07T02:03:48;0.90;99.90
20057;DHT22;10189;49.546;7.906;2022-12-07T02:06:19;0.90;99.90
20057;DHT22;10189;49.546;7.906;2022-12-07T02:08:49;0.90;99.90
20057;DHT22;10189;49.546;7.906;2022-12-07T02:11:15;0.90;99.90
20057;DHT22;10189;49.546;7.906;2022-12-07T02:13:43;1.00;99.90
20057;DHT22;10189;49.546;7.906;2022-12-07T02:16:47;0.90;99.90
20057;DHT22;10189;49.546;7.906;2022-12-07T02:29:13;1.00;99.90
20057;DHT22;10189;49.546;7.906;2022-12-07T02:31:53;1.00;99.70
20057;DHT22;10189;49.546;7.906;2022-12-07T02:34:49;0.90;99.60
20057;DHT22;10189;49.546;7.906;2022-12-07T02:37:43;0.90;99.30
20057;DHT22;10189;49.546;7.906;2022-12-07T02:40:24;0.90;99.30
20057;DHT22;10189;49.546;7.906;2022-12-07T02:43:06;0.90;99.00
20057;DHT22;10189;49.546;7.906;2022-12-07T02:45:39;1.00;98.80
20057;DHT22;10189;49.546;7.906;2022-12-07T02:48:09;1.00;98.80
20057;DHT22;10189;49.546;7.906;2022-12-07T02:50:37;1.00;98.80
20057;DHT22;10189;49.546;7.906;2022-12-07T02:53:03;1.00;99.10
20057;DHT22;10189;49.546;7.906;2022-12-07T02:55:35;0.90;99.00
20057;DHT22;10189;49.546;7.906;2022-12-07T03:03:54;0.90;98.80
20057;DHT22;10189;49.546;7.906;2022-12-07T03:06:41;1.00;98.70
20057;DHT22;10189;49.546;7.906;2022-12-07T03:09:54;1.00;98.40
20057;DHT22;10189;49.546;7.906;2022-12-07T03:12:28;1.00;98.70
20057;DHT22;10189;49.546;7.906;2022-12-07T03:15:12;1.00;98.30
20057;DHT22;10189;49.546;7.906;2022-12-07T03:17:45;1.10;97.90
20057;DHT22;10189;49.546;7.906;2022-12-07T03:20:14;1.00;97.90
20057;DHT22;10189;49.546;7.906;2022-12-07T03:22:45;1.00;97.90
20057;DHT22;10189;49.546;7.906;2022-12-07T03:25:15;1.10;98.00
20057;DHT22;10189;49.546;7.906;2022-12-07T03:30:36;1.10;97.90
20057;DHT22;10189;49.546;7.906;2022-12-07T03:33:15;1.10;97.80
20057;DHT22;10189;49.546;7.906;2022-12-07T03:35:52;1.20;96.90
20057;DHT22;10189;49.546;7.906;2022-12-07T03:38:35;1.20;97.00
20057;DHT22;10189;49.546;7.906;2022-12-07T03:41:23;1.20;96.80
20057;DHT22;10189;49.546;7.906;2022-12-07T03:43:53;1.10;96.60
20057;DHT22;10189;49.546;7.906;2022-12-07T03:54:41;1.30;96.00
20057;DHT22;10189;49.546;7.906;2022-12-07T03:57:17;1.30;95.40
20057;DHT22;10189;49.546;7.906;2022-12-07T03:59:46;1.20;95.70
20057;DHT22;10189;49.546;7.906;2022-12-07T04:02:13;1.20;96.00
20057;DHT22;10189;49.546;7.906;2022-12-07T04:04:39;1.20;96.10
20057;DHT22;10189;49.546;7.906;2022-12-07T04:07:06;1.30;95.50
20057;DHT22;10189;49.546;7.906;2022-12-07T04:09:32;1.30;95.60
20057;DHT22;10189;49.546;7.906;2022-12-07T04:11:58;1.30;95.90
20057;DHT22;10189;49.546;7.906;2022-12-07T04:14:24;1.30;96.00
20057;DHT22;10189;49.546;7.906;2022-12-07T04:16:55;1.30;96.60
20057;DHT22;10189;49.546;7.906;2022-12-07T04:19:33;1.30;96.50
20057;DHT22;10189;49.546;7.906;2022-12-07T04:22:01;1.30;96.30
20057;DHT22;10189;49.546;7.906;2022-12-07T04:24:28;1.30;96.40
20057;DHT22;10189;49.546;7.906;2022-12-07T04:26:54;1.20;96.50
20057;DHT22;10189;49.546;7.906;2022-12-07T04:29:21;1.20;97.00
20057;DHT22;10189;49.546;7.906;2022-12-07T04:31:47;1.20;96.50
20057;DHT22;10189;49.546;7.906;2022-12-07T04:34:15;1.20;96.20
20057;DHT22;10189;49.546;7.906;2022-12-07T04:36:42;1.20;96.70
20057;DHT22;10189;49.546;7.906;2022-12-07T04:39:23;1.20;96.50
20057;DHT22;10189;49.546;7.906;2022-12-07T04:41:54;1.10;97.30
20057;DHT22;10189;49.546;7.906;2022-12-07T04:44:21;1.10;97.40
20057;DHT22;10189;49.546;7.906;2022-12-07T04:46:48;1.10;97.30
20057;DHT22;10189;49.546;7.906;2022-12-07T04:49:15;1.10;97.50
20057;DHT22;10189;49.546;7.906;2022-12-07T04:51:42;1.10;98.10
20057;DHT22;10189;49.546;7.906;2022-12-07T04:54:09;1.10;97.90
20057;DHT22;10189;49.546;7.906;2022-12-07T04:56:35;1.10;98.20
20057;DHT22;10189;49.546;7.906;2022-12-07T04:59:02;1.10;98.40
20057;DHT22;10189;49.546;7.906;2022-12-07T05:01:29;1.00;98.80
20057;DHT22;10189;49.546;7.906;2022-12-07T05:03:55;1.10;98.40
20057;DHT22;10189;49.546;7.906;2022-12-07T05:06:21;1.00;98.50
20057;DHT22;10189;49.546;7.906;2022-12-07T05:08:47;1.00;98.90
20057;DHT22;10189;49.546;7.906;2022-12-07T05:11:14;1.00;99.10
20057;DHT22;10189;49.546;7.906;2022-12-07T05:14:01;1.00;98.60
20057;DHT22;10189;49.546;7.906;2022-12-07T05:16:28;1.00;99.10
20057;DHT22;10189;49.546;7.906;2022-12-07T05:18:54;1.00;99.10
20057;DHT22;10189;49.546;7.906;2022-12-07T05:21:20;1.00;99.30
20057;DHT22;10189;49.546;7.906;2022-12-07T05:23:47;1.00;99.50
20057;DHT22;10189;49.546;7.906;2022-12-07T05:26:13;1.00;99.90
20057;DHT22;10189;49.546;7.906;2022-12-07T05:28:38;1.00;99.80
20057;DHT22;10189;49.546;7.906;2022-12-07T05:31:04;1.00;99.40
20057;DHT22;10189;49.546;7.906;2022-12-07T05:33:30;1.00;99.90
20057;DHT22;10189;49.546;7.906;2022-12-07T05:35:56;1.00;99.80
20057;DHT22;10189;49.546;7.906;2022-12-07T05:38:23;1.00;99.30
20057;DHT22;10189;49.546;7.906;2022-12-07T05:40:50;1.00;99.20
20057;DHT22;10189;49.546;7.906;2022-12-07T05:43:16;1.00;99.60
20057;DHT22;10189;49.546;7.906;2022-12-07T05:45:42;1.00;99.50
20057;DHT22;10189;49.546;7.906;2022-12-07T05:48:07;1.00;99.30
20057;DHT22;10189;49.546;7.906;2022-12-07T05:50:33;1.00;99.60
20057;DHT22;10189;49.546;7.906;2022-12-07T05:52:59;1.00;99.60
20057;DHT22;10189;49.546;7.906;2022-12-07T05:55:25;1.00;99.60
20057;DHT22;10189;49.546;7.906;2022-12-07T05:57:51;1.00;99.30
20057;DHT22;10189;49.546;7.906;2022-12-07T06:00:36;0.90;99.60
20057;DHT22;10189;49.546;7.906;2022-12-07T06:03:02;0.90;99.90
20057;DHT22;10189;49.546;7.906;2022-12-07T06:05:27;0.90;99.90
20057;DHT22;10189;49.546;7.906;2022-12-07T06:07:53;0.90;99.90
20057;DHT22;10189;49.546;7.906;2022-12-07T06:10:19;0.90;99.90
20057;DHT22;10189;49.546;7.906;2022-12-07T06:12:45;0.90;99.90
20057;DHT22;10189;49.546;7.906;2022-12-07T06:15:11;0.90;99.90
20057;DHT22;10189;49.546;7.906;2022-12-07T06:17:38;0.90;99.90
20057;DHT22;10189;49.546;7.906;2022-12-07T06:20:05;1.00;99.90
20057;DHT22;10189;49.546;7.906;2022-12-07T06:22:32;1.00;99.90
20057;DHT22;10189;49.546;7.906;2022-12-07T06:24:58;1.00;99.90
20057;DHT22;10189;49.546;7.906;2022-12-07T06:27:23;1.00;99.90
20057;DHT22;10189;49.546;7.906;2022-12-07T06:29:49;1.10;99.90
20057;DHT22;10189;49.546;7.906;2022-12-07T06:32:15;1.10;99.90
20057;DHT22;10189;49.546;7.906;2022-12-07T06:34:41;1.20;99.90
20057;DHT22;10189;49.546;7.906;2022-12-07T06:37:07;1.30;99.90
20057;DHT22;10189;49.546;7.906;2022-12-07T06:39:33;1.30;99.80
20057;DHT22;10189;49.546;7.906;2022-12-07T06:41:59;1.30;99.90
20057;DHT22;10189;49.546;7.906;2022-12-07T06:44:25;1.30;99.50
20057;DHT22;10189;49.546;7.906;2022-12-07T06:46:51;1.40;99.50
20057;DHT22;10189;49.546;7.906;2022-12-07T06:49:18;1.40;99.60
20057;DHT22;10189;49.546;7.906;2022-12-07T06:51:44;1.40;99.50
20057;DHT22;10189;49.546;7.906;2022-12-07T06:54:11;1.40;99.30
20057;DHT22;10189;49.546;7.906;2022-12-07T06:56:38;1.40;99.60
20057;DHT22;10189;49.546;7.906;2022-12-07T06:59:04;1.40;99.30
20057;DHT22;10189;49.546;7.906;2022-12-07T07:01:32;1.40;99.10
20057;DHT22;10189;49.546;7.906;2022-12-07T07:04:00;1.40;99.60
20057;DHT22;10189;49.546;7.906;2022-12-07T07:06:26;1.40;99.80
20057;DHT22;10189;49.546;7.906;2022-12-07T07:08:52;1.40;99.60
20057;DHT22;10189;49.546;7.906;2022-12-07T07:11:18;1.40;99.40
20057;DHT22;10189;49.546;7.906;2022-12-07T07:13:45;1.40;99.10
20057;DHT22;10189;49.546;7.906;2022-12-07T07:16:11;1.50;99.20
20057;DHT22;10189;49.546;7.906;2022-12-07T07:18:37;1.50;99.20
20057;DHT22;10189;49.546;7.906;2022-12-07T07:21:03;1.50;99.10
20057;DHT22;10189;49.546;7.906;2022-12-07T07:23:30;1.50;98.80
20057;DHT22;10189;49.546;7.906;2022-12-07T07:25:56;1.50;98.80
20057;DHT22;10189;49.546;7.906;2022-12-07T07:28:22;1.60;98.20
20057;DHT22;10189;49.546;7.906;2022-12-07T07:30:48;1.70;98.20
20057;DHT22;10189;49.546;7.906;2022-12-07T07:33:14;1.60;98.20
20057;DHT22;10189;49.546;7.906;2022-12-07T07:35:40;1.60;98.50
20057;DHT22;10189;49.546;7.906;2022-12-07T07:38:07;1.70;98.50
20057;DHT22;10189;49.546;7.906;2022-12-07T07:40:33;1.70;98.90
20057;DHT22;10189;49.546;7.906;2022-12-07T07:42:59;1.70;98.50
20057;DHT22;10189;49.546;7.906;2022-12-07T07:45:26;1.80;98.70
20057;DHT22;10189;49.546;7.906;2022-12-07T07:47:53;1.80;98.60
20057;DHT22;10189;49.546;7.906;2022-12-07T07:50:20;1.80;98.50
20057;DHT22;10189;49.546;7.906;2022-12-07T07:52:46;1.80;97.80
20057;DHT22;10189;49.546;7.906;2022-12-07T07:55:13;1.80;97.60
20057;DHT22;10189;49.546;7.906;2022-12-07T07:57:39;1.90;97.60
20057;DHT22;10189;49.546;7.906;2022-12-07T08:00:13;2.00;96.70
20057;DHT22;10189;49.546;7.906;2022-12-07T08:02:41;2.00;96.90
20057;DHT22;10189;49.546;7.906;2022-12-07T08:05:08;1.90;96.80
20057;DHT22;10189;49.546;7.906;2022-12-07T08:07:36;1.90;97.00
20057;DHT22;10189;49.546;7.906;2022-12-07T08:10:01;1.90;96.80
20057;DHT22;10189;49.546;7.906;2022-12-07T08:12:28;2.00;96.70
20057;DHT22;10189;49.546;7.906;2022-12-07T08:14:53;2.00;96.80
20057;DHT22;10189;49.546;7.906;2022-12-07T08:17:19;2.10;96.70
20057;DHT22;10189;49.546;7.906;2022-12-07T08:19:45;2.10;96.10
20057;DHT22;10189;49.546;7.906;2022-12-07T08:22:11;2.20;95.90
20057;DHT22;10189;49.546;7.906;2022-12-07T08:24:37;2.20;95.40
20057;DHT22;10189;49.546;7.906;2022-12-07T08:27:03;2.30;95.10
20057;DHT22;10189;49.546;7.906;2022-12-07T08:29:29;2.30;95.00
20057;DHT22;10189;49.546;7.906;2022-12-07T08:31:55;2.40;95.00
20057;DHT22;10189;49.546;7.906;2022-12-07T08:34:21;2.50;94.70
20057;DHT22;10189;49.546;7.906;2022-12-07T08:36:47;2.50;94.40
20057;DHT22;10189;49.546;7.906;2022-12-07T08:39:13;2.50;93.60
20057;DHT22;10189;49.546;7.906;2022-12-07T08:41:39;2.60;93.50
20057;DHT22;10189;49.546;7.906;2022-12-07T08:44:05;2.70;93.70
20057;DHT22;10189;49.546;7.906;2022-12-07T08:46:38;2.70;93.40
20057;DHT22;10189;49.546;7.906;2022-12-07T08:49:14;2.70;93.30
20057;DHT22;10189;49.546;7.906;2022-12-07T08:51:47;2.60;93.30
20057;DHT22;10189;49.546;7.906;2022-12-07T08:54:15;2.50;93.80
20057;DHT22;10189;49.546;7.906;2022-12-07T08:56:43;2.50;94.10
20057;DHT22;10189;49.546;7.906;2022-12-07T08:59:13;2.50;93.90
20057;DHT22;10189;49.546;7.906;2022-12-07T09:01:41;2.40;93.80
20057;DHT22;10189;49.546;7.906;2022-12-07T09:04:07;2.40;93.80
20057;DHT22;10189;49.546;7.906;2022-12-07T09:06:33;2.30;94.00
20057;DHT22;10189;49.546;7.906;2022-12-07T09:09:01;2.30;94.30
20057;DHT22;10189;49.546;7.906;2022-12-07T09:11:28;2.20;94.90
20057;DHT22;10189;49.546;7.906;2022-12-07T09:13:54;2.20;95.50
20057;DHT22;10189;49.546;7.906;2022-12-07T09:16:20;2.30;95.80
20057;DHT22;10189;49.546;7.906;2022-12-07T09:18:46;2.50;96.00
20057;DHT22;10189;49.546;7.906;2022-12-07T09:21:12;2.50;94.40
20057;DHT22;10189;49.546;7.906;2022-12-07T09:23:38;2.60;93.70
20057;DHT22;10189;49.546;7.906;2022-12-07T09:26:04;2.60;93.40
20057;DHT22;10189;49.546;7.906;2022-12-07T09:28:31;2.60;93.80
20057;DHT22;10189;49.546;7.906;2022-12-07T09:30:57;2.70;93.00
20057;DHT22;10189;49.546;7.906;2022-12-07T09:33:23;2.80;93.10
20057;DHT22;10189;49.546;7.906;2022-12-07T09:35:50;3.00;93.50
20057;DHT22;10189;49.546;7.906;2022-12-07T09:38:18;3.30;92.80
20057;DHT22;10189;49.546;7.906;2022-12-07T09:40:46;3.50;90.90
20057;DHT22;10189;49.546;7.906;2022-12-07T09:43:18;3.70;88.60
20057;DHT22;10189;49.546;7.906;2022-12-07T09:45:49;3.80;89.10
20057;DHT22;10189;49.546;7.906;2022-12-07T09:48:22;3.80;88.60
20057;DHT22;10189;49.546;7.906;2022-12-07T09:50:59;3.70;88.30
20057;DHT22;10189;49.546;7.906;2022-12-07T09:53:33;3.70;89.20
20057;DHT22;10189;49.546;7.906;2022-12-07T09:56:01;3.70;89.50
20057;DHT22;10189;49.546;7.906;2022-12-07T09:58:28;3.70;88.10
20057;DHT22;10189;49.546;7.906;2022-12-07T10:03:34;3.70;88.60
20057;DHT22;10189;49.546;7.906;2022-12-07T10:06:01;3.70;87.90
20057;DHT22;10189;49.546;7.906;2022-12-07T10:08:27;3.60;87.80
20057;DHT22;10189;49.546;7.906;2022-12-07T10:10:55;3.60;88.30
20057;DHT22;10189;49.546;7.906;2022-12-07T10:16:01;3.60;87.90
20057;DHT22;10189;49.546;7.906;2022-12-07T10:18:32;3.70;88.70
20057;DHT22;10189;49.546;7.906;2022-12-07T10:21:25;3.60;87.40
20057;DHT22;10189;49.546;7.906;2022-12-07T10:26:51;3.60;88.10
20057;DHT22;10189;49.546;7.906;2022-12-07T10:34:39;3.50;88.30
20057;DHT22;10189;49.546;7.906;2022-12-07T10:40:00;3.50;87.10
20057;DHT22;10189;49.546;7.906;2022-12-07T10:42:28;3.60;86.70
20057;DHT22;10189;49.546;7.906;2022-12-07T10:45:16;3.60;85.20
20057;DHT22;10189;49.546;7.906;2022-12-07T10:56:37;4.00;83.20
20057;DHT22;10189;49.546;7.906;2022-12-07T11:35:11;5.00;78.30
20057;DHT22;10189;49.546;7.906;2022-12-07T11:38:28;4.90;79.20
20057;DHT22;10189;49.546;7.906;2022-12-07T11:41:22;4.90;80.30
20057;DHT22;10189;49.546;7.906;2022-12-07T11:46:49;4.80;80.70
20057;DHT22;10189;49.546;7.906;2022-12-07T11:52:32;5.00;80.00
20057;DHT22;10189;49.546;7.906;2022-12-07T11:55:36;4.90;78.80
20057;DHT22;10189;49.546;7.906;2022-12-07T11:58:19;4.90;79.70
20057;DHT22;10189;49.546;7.906;2022-12-07T12:06:43;4.80;80.00
20057;DHT22;10189;49.546;7.906;2022-12-07T12:09:14;4.90;80.30
20057;DHT22;10189;49.546;7.906;2022-12-07T12:21:02;5.30;78.20
20057;DHT22;10189;49.546;7.906;2022-12-07T12:23:59;5.50;78.30
20057;DHT22;10189;49.546;7.906;2022-12-07T12:26:32;5.50;75.50
20057;DHT22;10189;49.546;7.906;2022-12-07T12:34:58;5.50;78.40
20057;DHT22;10189;49.546;7.906;2022-12-07T12:42:56;5.30;77.50
20057;DHT22;10189;49.546;7.906;2022-12-07T12:45:32;5.30;77.90
20057;DHT22;10189;49.546;7.906;2022-12-07T12:51:37;5.20;79.00
20057;DHT22;10189;49.546;7.906;2022-12-07T12:54:12;5.30;78.50
20057;DHT22;10189;49.546;7.906;2022-12-07T12:59:41;5.20;78.60
20057;DHT22;10189;49.546;7.906;2022-12-07T13:02:35;5.10;78.80
20057;DHT22;10189;49.546;7.906;2022-12-07T13:15:50;4.70;81.30
20057;DHT22;10189;49.546;7.906;2022-12-07T13:28:36;4.50;80.00
20057;DHT22;10189;49.546;7.906;2022-12-07T13:33:53;4.40;82.40
20057;DHT22;10189;49.546;7.906;2022-12-07T13:36:38;4.40;80.90
20057;DHT22;10189;49.546;7.906;2022-12-07T13:39:19;4.40;81.60
20057;DHT22;10189;49.546;7.906;2022-12-07T13:41:53;4.30;80.90
20057;DHT22;10189;49.546;7.906;2022-12-07T13:44:40;4.40;80.60
20057;DHT22;10189;49.546;7.906;2022-12-07T13:47:17;4.30;81.40
20057;DHT22;10189;49.546;7.906;2022-12-07T13:49:55;4.20;82.40
20057;DHT22;10189;49.546;7.906;2022-12-07T13:52:25;4.10;82.70
20057;DHT22;10189;49.546;7.906;2022-12-07T13:57:32;4.00;82.70
20057;DHT22;10189;49.546;7.906;2022-12-07T14:00:02;4.00;82.30
20057;DHT22;10189;49.546;7.906;2022-12-07T14:02:32;3.90;82.60
20057;DHT22;10189;49.546;7.906;2022-12-07T14:07:34;3.90;83.70
20057;DHT22;10189;49.546;7.906;2022-12-07T14:10:04;3.90;83.60
20057;DHT22;10189;49.546;7.906;2022-12-07T14:12:32;3.90;83.30
20057;DHT22;10189;49.546;7.906;2022-12-07T14:15:03;3.90;84.20
20057;DHT22;10189;49.546;7.906;2022-12-07T14:17:29;3.90;83.80
20057;DHT22;10189;49.546;7.906;2022-12-07T14:20:27;3.80;83.70
20057;DHT22;10189;49.546;7.906;2022-12-07T14:23:02;3.70;84.20
20057;DHT22;10189;49.546;7.906;2022-12-07T14:25:47;3.70;84.60
20057;DHT22;10189;49.546;7.906;2022-12-07T14:28:29;3.70;84.70
20057;DHT22;10189;49.546;7.906;2022-12-07T14:30:58;3.70;84.50
20057;DHT22;10189;49.546;7.906;2022-12-07T14:33:25;3.70;83.90
20057;DHT22;10189;49.546;7.906;2022-12-07T14:35:52;3.70;84.50
20057;DHT22;10189;49.546;7.906;2022-12-07T14:38:21;3.70;84.90
20057;DHT22;10189;49.546;7.906;2022-12-07T14:40:48;3.60;83.80
20057;DHT22;10189;49.546;7.906;2022-12-07T14:43:16;3.60;84.40
20057;DHT22;10189;49.546;7.906;2022-12-07T14:45:43;3.60;84.60
20057;DHT22;10189;49.546;7.906;2022-12-07T14:48:14;3.60;84.60
20057;DHT22;10189;49.546;7.906;2022-12-07T14:50:44;3.70;84.80
20057;DHT22;10189;49.546;7.906;2022-12-07T14:53:22;3.60;84.20
20057;DHT22;10189;49.546;7.906;2022-12-07T14:55:53;3.60;84.70
20057;DHT22;10189;49.546;7.906;2022-12-07T14:58:19;3.60;84.70
20057;DHT22;10189;49.546;7.906;2022-12-07T15:00:46;3.60;84.60
20057;DHT22;10189;49.546;7.906;2022-12-07T15:03:13;3.60;85.10
20057;DHT22;10189;49.546;7.906;2022-12-07T15:05:40;3.50;85.60
20057;DHT22;10189;49.546;7.906;2022-12-07T15:08:06;3.40;86.00
20057;DHT22;10189;49.546;7.906;2022-12-07T15:10:34;3.40;86.40
20057;DHT22;10189;49.546;7.906;2022-12-07T15:13:05;3.30;86.60
20057;DHT22;10189;49.546;7.906;2022-12-07T15:15:52;3.30;87.00
20057;DHT22;10189;49.546;7.906;2022-12-07T15:18:19;3.20;87.30
20057;DHT22;10189;49.546;7.906;2022-12-07T15:20:47;3.30;87.20
20057;DHT22;10189;49.546;7.906;2022-12-07T15:23:13;3.30;87.40
20057;DHT22;10189;49.546;7.906;2022-12-07T15:25:43;3.40;87.60
20057;DHT22;10189;49.546;7.906;2022-12-07T15:28:11;3.30;87.50
20057;DHT22;10189;49.546;7.906;2022-12-07T15:30:38;3.30;88.00
20057;DHT22;10189;49.546;7.906;2022-12-07T15:33:06;3.20;88.10
20057;DHT22;10189;49.546;7.906;2022-12-07T15:35:32;3.20;88.00
20057;DHT22;10189;49.546;7.906;2022-12-07T15:37:58;3.10;88.30
20057;DHT22;10189;49.546;7.906;2022-12-07T15:40:24;2.90;88.70
20057;DHT22;10189;49.546;7.906;2022-12-07T15:42:50;2.70;89.10
20057;DHT22;10189;49.546;7.906;2022-12-07T15:45:15;2.60;89.20
20057;DHT22;10189;49.546;7.906;2022-12-07T15:47:43;2.50;89.10
20057;DHT22;10189;49.546;7.906;2022-12-07T15:50:13;2.50;89.60
20057;DHT22;10189;49.546;7.906;2022-12-07T15:52:41;2.40;89.90
20057;DHT22;10189;49.546;7.906;2022-12-07T15:55:09;2.50;90.20
20057;DHT22;10189;49.546;7.906;2022-12-07T15:57:37;2.50;90.50
20057;DHT22;10189;49.546;7.906;2022-12-07T16:00:07;2.60;90.30
20057;DHT22;10189;49.546;7.906;2022-12-07T16:02:36;2.50;90.20
20057;DHT22;10189;49.546;7.906;2022-12-07T16:05:03;2.40;90.40
20057;DHT22;10189;49.546;7.906;2022-12-07T16:07:29;2.40;89.70
20057;DHT22;10189;49.546;7.906;2022-12-07T16:09:55;2.40;90.20
20057;DHT22;10189;49.546;7.906;2022-12-07T16:12:21;2.40;90.20
20057;DHT22;10189;49.546;7.906;2022-12-07T16:14:47;2.40;90.50
20057;DHT22;10189;49.546;7.906;2022-12-07T16:17:13;2.40;90.50
20057;DHT22;10189;49.546;7.906;2022-12-07T16:19:39;2.40;90.70
20057;DHT22;10189;49.546;7.906;2022-12-07T16:22:05;2.30;90.80
20057;DHT22;10189;49.546;7.906;2022-12-07T16:24:31;2.30;91.00
20057;DHT22;10189;49.546;7.906;2022-12-07T16:26:57;2.30;90.70
20057;DHT22;10189;49.546;7.906;2022-12-07T16:29:23;2.20;91.00
20057;DHT22;10189;49.546;7.906;2022-12-07T16:31:50;2.10;91.00
20057;DHT22;10189;49.546;7.906;2022-12-07T16:34:17;2.00;91.50
20057;DHT22;10189;49.546;7.906;2022-12-07T16:36:43;1.90;91.70
20057;DHT22;10189;49.546;7.906;2022-12-07T16:39:09;1.70;92.20
20057;DHT22;10189;49.546;7.906;2022-12-07T16:41:35;1.60;92.60
20057;DHT22;10189;49.546;7.906;2022-12-07T16:44:04;1.50;93.20
20057;DHT22;10189;49.546;7.906;2022-12-07T16:46:32;1.30;94.10
20057;DHT22;10189;49.546;7.906;2022-12-07T16:48:59;1.30;94.30
20057;DHT22;10189;49.546;7.906;2022-12-07T16:51:25;1.20;94.70
20057;DHT22;10189;49.546;7.906;2022-12-07T16:53:52;1.10;95.00
20057;DHT22;10189;49.546;7.906;2022-12-07T16:56:19;1.00;95.90
20057;DHT22;10189;49.546;7.906;2022-12-07T16:58:45;0.90;95.90
20057;DHT22;10189;49.546;7.906;2022-12-07T17:01:18;0.90;96.50
20057;DHT22;10189;49.546;7.906;2022-12-07T17:03:47;0.80;97.30
20057;DHT22;10189;49.546;7.906;2022-12-07T17:06:27;0.80;97.70
20057;DHT22;10189;49.546;7.906;2022-12-07T17:08:56;0.80;97.50
20057;DHT22;10189;49.546;7.906;2022-12-07T17:11:25;0.80;97.70
20057;DHT22;10189;49.546;7.906;2022-12-07T17:13:53;0.80;97.50
20057;DHT22;10189;49.546;7.906;2022-12-07T17:16:37;0.80;97.50
20057;DHT22;10189;49.546;7.906;2022-12-07T17:19:05;0.70;97.70
20057;DHT22;10189;49.546;7.906;2022-12-07T17:21:31;0.60;98.00
20057;DHT22;10189;49.546;7.906;2022-12-07T17:23:59;0.50;98.20
20057;DHT22;10189;49.546;7.906;2022-12-07T17:26:27;0.50;98.80
20057;DHT22;10189;49.546;7.906;2022-12-07T17:28:54;0.50;99.10
20057;DHT22;10189;49.546;7.906;2022-12-07T17:31:22;0.40;99.40
20057;DHT22;10189;49.546;7.906;2022-12-07T17:33:49;0.40;99.80
20057;DHT22;10189;49.546;7.906;2022-12-07T17:36:25;0.40;99.90
20057;DHT22;10189;49.546;7.906;2022-12-07T17:38:53;0.40;99.90
20057;DHT22;10189;49.546;7.906;2022-12-07T17:41:20;0.50;99.90
20057;DHT22;10189;49.546;7.906;2022-12-07T17:44:09;0.50;99.90
20057;DHT22;10189;49.546;7.906;2022-12-07T17:46:37;0.50;99.90
20057;DHT22;10189;49.546;7.906;2022-12-07T17:49:04;0.60;99.90
20057;DHT22;10189;49.546;7.906;2022-12-07T17:51:31;0.60;99.90
20057;DHT22;10189;49.546;7.906;2022-12-07T17:54:16;0.70;99.90
20057;DHT22;10189;49.546;7.906;2022-12-07T17:56:43;0.70;99.90
20057;DHT22;10189;49.546;7.906;2022-12-07T17:59:10;0.60;99.90
20057;DHT22;10189;49.546;7.906;2022-12-07T18:01:37;0.60;99.90
20057;DHT22;10189;49.546;7.906;2022-12-07T18:04:04;0.60;99.90
20057;DHT22;10189;49.546;7.906;2022-12-07T18:06:30;0.60;99.90
20057;DHT22;10189;49.546;7.906;2022-12-07T18:08:57;0.60;99.90
20057;DHT22;10189;49.546;7.906;2022-12-07T18:11:24;0.70;99.90
20057;DHT22;10189;49.546;7.906;2022-12-07T18:13:51;0.70;99.90
20057;DHT22;10189;49.546;7.906;2022-12-07T18:16:20;0.80;99.90
20057;DHT22;10189;49.546;7.906;2022-12-07T18:18:49;0.80;99.90
20057;DHT22;10189;49.546;7.906;2022-12-07T18:21:25;0.90;99.60
20057;DHT22;10189;49.546;7.906;2022-12-07T18:23:55;0.90;99.20
20057;DHT22;10189;49.546;7.906;2022-12-07T18:26:24;1.00;99.10
20057;DHT22;10189;49.546;7.906;2022-12-07T18:28:50;1.00;98.80
20057;DHT22;10189;49.546;7.906;2022-12-07T18:31:17;1.00;98.90
20057;DHT22;10189;49.546;7.906;2022-12-07T18:33:45;1.10;98.70
20057;DHT22;10189;49.546;7.906;2022-12-07T18:36:14;1.10;98.00
20057;DHT22;10189;49.546;7.906;2022-12-07T18:38:41;1.10;98.00
20057;DHT22;10189;49.546;7.906;2022-12-07T18:41:09;1.10;97.80
20057;DHT22;10189;49.546;7.906;2022-12-07T18:43:37;1.00;97.60